sensor_id;sensor_type;location;lat;lon;timestamp;temperature;humidity
67817;DHT22;54614;47.576;7.524;2024-03-02T00:02:14;17.90;56.50
67817;DHT22;54614;47.576;7.524;2024-03-02T00:04:40;17.80;56.50
67817;DHT22;54614;47.576;7.524;2024-03-02T00:07:13;17.80;56.50
67817;DHT22;54614;47.576;7.524;2024-03-02T00:09:40;17.90;56.30
67817;DHT22;54614;47.576;7.524;2024-03-02T00:12:06;17.80;56.20
67817;DHT22;54614;47.576;7.524;2024-03-02T00:14:33;17.80;56.40
67817;DHT22;54614;47.576;7.524;2024-03-02T00:16:59;17.80;56.50
67817;DHT22;54614;47.576;7.524;2024-03-02T00:19:25;17.80;56.50
67817;DHT22;54614;47.576;7.524;2024-03-02T00:21:50;17.90;56.50
67817;DHT22;54614;47.576;7.524;2024-03-02T00:24:21;17.80;56.50
67817;DHT22;54614;47.576;7.524;2024-03-02T00:26:57;17.90;56.50
67817;DHT22;54614;47.576;7.524;2024-03-02T00:29:22;17.90;56.50
67817;DHT22;54614;47.576;7.524;2024-03-02T00:31:48;17.80;56.50
67817;DHT22;54614;47.576;7.524;2024-03-02T00:34:14;17.80;56.50
67817;DHT22;54614;47.576;7.524;2024-03-02T00:36:41;17.80;56.30
67817;DHT22;54614;47.576;7.524;2024-03-02T00:39:07;17.80;56.30
67817;DHT22;54614;47.576;7.524;2024-03-02T00:41:33;17.80;56.40
67817;DHT22;54614;47.576;7.524;2024-03-02T00:44:05;17.80;56.60
67817;DHT22;54614;47.576;7.524;2024-03-02T00:46:40;17.80;56.10
67817;DHT22;54614;47.576;7.524;2024-03-02T00:51:49;17.70;56.00
67817;DHT22;54614;47.576;7.524;2024-03-02T00:54:26;17.70;56.00
67817;DHT22;54614;47.576;7.524;2024-03-02T00:56:53;17.70;56.00
67817;DHT22;54614;47.576;7.524;2024-03-02T00:59:21;17.70;56.00
67817;DHT22;54614;47.576;7.524;2024-03-02T01:01:48;17.70;56.00
67817;DHT22;54614;47.576;7.524;2024-03-02T01:04:15;17.70;55.90
67817;DHT22;54614;47.576;7.524;2024-03-02T01:06:42;17.70;55.80
67817;DHT22;54614;47.576;7.524;2024-03-02T01:09:09;17.70;55.80
67817;DHT22;54614;47.576;7.524;2024-03-02T01:11:34;17.70;55.80
67817;DHT22;54614;47.576;7.524;2024-03-02T01:14:00;17.70;55.70
67817;DHT22;54614;47.576;7.524;2024-03-02T01:16:26;17.70;55.70
67817;DHT22;54614;47.576;7.524;2024-03-02T01:18:52;17.70;55.70
67817;DHT22;54614;47.576;7.524;2024-03-02T01:21:18;17.70;55.60
67817;DHT22;54614;47.576;7.524;2024-03-02T01:23:43;17.80;55.60
67817;DHT22;54614;47.576;7.524;2024-03-02T01:26:09;17.80;55.60
67817;DHT22;54614;47.576;7.524;2024-03-02T01:28:35;17.70;55.50
67817;DHT22;54614;47.576;7.524;2024-03-02T01:31:01;17.70;55.50
67817;DHT22;54614;47.576;7.524;2024-03-02T01:33:27;17.70;55.60
67817;DHT22;54614;47.576;7.524;2024-03-02T01:35:53;17.80;56.00
67817;DHT22;54614;47.576;7.524;2024-03-02T01:38:19;17.80;56.00
67817;DHT22;54614;47.576;7.524;2024-03-02T01:40:45;17.70;56.70
67817;DHT22;54614;47.576;7.524;2024-03-02T01:43:11;17.70;56.00
67817;DHT22;54614;47.576;7.524;2024-03-02T01:45:37;17.80;56.10
67817;DHT22;54614;47.576;7.524;2024-03-02T01:48:05;17.80;56.20
67817;DHT22;54614;47.576;7.524;2024-03-02T01:50:32;17.80;56.10
67817;DHT22;54614;47.576;7.524;2024-03-02T01:53:00;17.80;56.10
67817;DHT22;54614;47.576;7.524;2024-03-02T01:55:27;17.70;56.10
67817;DHT22;54614;47.576;7.524;2024-03-02T01:57:55;17.70;56.00
67817;DHT22;54614;47.576;7.524;2024-03-02T02:00:22;17.70;55.90
67817;DHT22;54614;47.576;7.524;2024-03-02T02:02:50;17.70;56.80
67817;DHT22;54614;47.576;7.524;2024-03-02T02:05:16;17.80;56.20
67817;DHT22;54614;47.576;7.524;2024-03-02T02:07:42;17.70;56.20
67817;DHT22;54614;47.576;7.524;2024-03-02T02:10:09;17.70;56.20
67817;DHT22;54614;47.576;7.524;2024-03-02T02:12:36;17.70;56.10
67817;DHT22;54614;47.576;7.524;2024-03-02T02:15:04;17.70;56.20
67817;DHT22;54614;47.576;7.524;2024-03-02T02:17:47;17.70;56.20
67817;DHT22;54614;47.576;7.524;2024-03-02T02:20:12;17.70;56.20
67817;DHT22;54614;47.576;7.524;2024-03-02T02:22:39;17.80;56.20
67817;DHT22;54614;47.576;7.524;2024-03-02T02:25:05;17.80;56.00
67817;DHT22;54614;47.576;7.524;2024-03-02T02:27:31;17.70;56.00
67817;DHT22;54614;47.576;7.524;2024-03-02T02:29:57;17.70;56.10
67817;DHT22;54614;47.576;7.524;2024-03-02T02:32:22;17.70;56.20
67817;DHT22;54614;47.576;7.524;2024-03-02T02:34:52;17.70;56.20
67817;DHT22;54614;47.576;7.524;2024-03-02T02:37:18;17.80;56.30
67817;DHT22;54614;47.576;7.524;2024-03-02T02:39:44;17.80;56.30
67817;DHT22;54614;47.576;7.524;2024-03-02T02:42:12;17.70;56.30
67817;DHT22;54614;47.576;7.524;2024-03-02T02:44:37;17.80;56.30
67817;DHT22;54614;47.576;7.524;2024-03-02T02:47:03;17.80;56.30
67817;DHT22;54614;47.576;7.524;2024-03-02T02:49:29;17.70;56.20
67817;DHT22;54614;47.576;7.524;2024-03-02T02:51:55;17.70;56.10
67817;DHT22;54614;47.576;7.524;2024-03-02T02:54:20;17.70;56.00
67817;DHT22;54614;47.576;7.524;2024-03-02T02:56:46;17.70;56.20
67817;DHT22;54614;47.576;7.524;2024-03-02T02:59:12;17.70;56.30
67817;DHT22;54614;47.576;7.524;2024-03-02T03:01:37;17.70;56.30
67817;DHT22;54614;47.576;7.524;2024-03-02T03:04:03;17.70;56.20
67817;DHT22;54614;47.576;7.524;2024-03-02T03:06:29;17.70;56.20
67817;DHT22;54614;47.576;7.524;2024-03-02T03:08:55;17.70;56.30
67817;DHT22;54614;47.576;7.524;2024-03-02T03:11:20;17.70;56.20
67817;DHT22;54614;47.576;7.524;2024-03-02T03:13:48;17.70;56.20
67817;DHT22;54614;47.576;7.524;2024-03-02T03:16:13;17.70;56.20
67817;DHT22;54614;47.576;7.524;2024-03-02T03:18:39;17.70;56.10
67817;DHT22;54614;47.576;7.524;2024-03-02T03:21:05;17.70;56.00
67817;DHT22;54614;47.576;7.524;2024-03-02T03:23:31;17.70;56.20
67817;DHT22;54614;47.576;7.524;2024-03-02T03:25:56;17.70;56.90
67817;DHT22;54614;47.576;7.524;2024-03-02T03:28:22;17.70;56.30
67817;DHT22;54614;47.576;7.524;2024-03-02T03:30:48;17.70;56.30
67817;DHT22;54614;47.576;7.524;2024-03-02T03:33:13;17.70;56.30
67817;DHT22;54614;47.576;7.524;2024-03-02T03:35:39;17.70;56.30
67817;DHT22;54614;47.576;7.524;2024-03-02T03:38:05;17.70;56.30
67817;DHT22;54614;47.576;7.524;2024-03-02T03:40:31;17.70;56.20
67817;DHT22;54614;47.576;7.524;2024-03-02T03:42:56;17.70;56.30
67817;DHT22;54614;47.576;7.524;2024-03-02T03:45:22;17.70;56.10
67817;DHT22;54614;47.576;7.524;2024-03-02T03:47:50;17.70;56.00
67817;DHT22;54614;47.576;7.524;2024-03-02T03:50:16;17.70;56.00
67817;DHT22;54614;47.576;7.524;2024-03-02T03:52:42;17.70;56.30
67817;DHT22;54614;47.576;7.524;2024-03-02T03:55:08;17.70;56.30
67817;DHT22;54614;47.576;7.524;2024-03-02T03:57:34;17.70;56.30
67817;DHT22;54614;47.576;7.524;2024-03-02T03:59:59;17.70;56.30
67817;DHT22;54614;47.576;7.524;2024-03-02T04:02:25;17.70;56.30
67817;DHT22;54614;47.576;7.524;2024-03-02T04:04:51;17.70;56.30
67817;DHT22;54614;47.576;7.524;2024-03-02T04:07:17;17.70;56.30
67817;DHT22;54614;47.576;7.524;2024-03-02T04:09:43;17.70;56.30
67817;DHT22;54614;47.576;7.524;2024-03-02T04:12:09;17.70;56.20
67817;DHT22;54614;47.576;7.524;2024-03-02T04:14:34;17.70;56.10
67817;DHT22;54614;47.576;7.524;2024-03-02T04:17:00;17.70;56.00
67817;DHT22;54614;47.576;7.524;2024-03-02T04:19:26;17.70;56.30
67817;DHT22;54614;47.576;7.524;2024-03-02T04:21:52;17.60;56.20
67817;DHT22;54614;47.576;7.524;2024-03-02T04:24:18;17.70;56.30
67817;DHT22;54614;47.576;7.524;2024-03-02T04:26:44;17.60;56.30
67817;DHT22;54614;47.576;7.524;2024-03-02T04:29:09;17.70;56.30
67817;DHT22;54614;47.576;7.524;2024-03-02T04:31:35;17.70;56.40
67817;DHT22;54614;47.576;7.524;2024-03-02T04:34:01;17.70;56.40
67817;DHT22;54614;47.576;7.524;2024-03-02T04:36:27;17.70;56.30
67817;DHT22;54614;47.576;7.524;2024-03-02T04:38:52;17.70;56.20
67817;DHT22;54614;47.576;7.524;2024-03-02T04:41:18;17.60;56.00
67817;DHT22;54614;47.576;7.524;2024-03-02T04:43:44;17.70;56.00
67817;DHT22;54614;47.576;7.524;2024-03-02T04:46:10;17.60;56.30
67817;DHT22;54614;47.576;7.524;2024-03-02T04:48:36;17.70;56.30
67817;DHT22;54614;47.576;7.524;2024-03-02T04:51:02;17.70;56.30
67817;DHT22;54614;47.576;7.524;2024-03-02T04:53:27;17.60;56.30
67817;DHT22;54614;47.576;7.524;2024-03-02T04:55:53;17.70;56.30
67817;DHT22;54614;47.576;7.524;2024-03-02T04:58:19;17.70;56.30
67817;DHT22;54614;47.576;7.524;2024-03-02T05:00:45;17.70;56.30
67817;DHT22;54614;47.576;7.524;2024-03-02T05:03:12;17.60;56.20
67817;DHT22;54614;47.576;7.524;2024-03-02T05:05:38;17.70;56.30
67817;DHT22;54614;47.576;7.524;2024-03-02T05:08:04;17.70;56.10
67817;DHT22;54614;47.576;7.524;2024-03-02T05:10:30;17.60;56.10
67817;DHT22;54614;47.576;7.524;2024-03-02T05:12:56;17.60;56.20
67817;DHT22;54614;47.576;7.524;2024-03-02T05:15:22;17.70;56.30
67817;DHT22;54614;47.576;7.524;2024-03-02T05:17:48;17.70;56.30
67817;DHT22;54614;47.576;7.524;2024-03-02T05:20:14;17.60;56.30
67817;DHT22;54614;47.576;7.524;2024-03-02T05:22:39;17.70;56.40
67817;DHT22;54614;47.576;7.524;2024-03-02T05:25:06;17.70;56.30
67817;DHT22;54614;47.576;7.524;2024-03-02T05:27:32;17.70;56.30
67817;DHT22;54614;47.576;7.524;2024-03-02T05:29:58;17.70;56.30
67817;DHT22;54614;47.576;7.524;2024-03-02T05:32:24;17.60;56.30
67817;DHT22;54614;47.576;7.524;2024-03-02T05:34:51;17.70;56.20
67817;DHT22;54614;47.576;7.524;2024-03-02T05:37:17;17.60;56.10
67817;DHT22;54614;47.576;7.524;2024-03-02T05:39:43;17.60;56.20
67817;DHT22;54614;47.576;7.524;2024-03-02T05:42:09;17.70;56.30
67817;DHT22;54614;47.576;7.524;2024-03-02T05:44:36;17.70;56.40
67817;DHT22;54614;47.576;7.524;2024-03-02T05:47:02;17.70;56.40
67817;DHT22;54614;47.576;7.524;2024-03-02T05:49:29;17.70;56.40
67817;DHT22;54614;47.576;7.524;2024-03-02T05:51:55;17.60;56.30
67817;DHT22;54614;47.576;7.524;2024-03-02T05:54:21;17.60;56.30
67817;DHT22;54614;47.576;7.524;2024-03-02T05:56:47;17.60;56.30
67817;DHT22;54614;47.576;7.524;2024-03-02T05:59:13;17.60;56.30
67817;DHT22;54614;47.576;7.524;2024-03-02T06:01:43;17.60;56.20
67817;DHT22;54614;47.576;7.524;2024-03-02T06:04:10;17.60;56.10
67817;DHT22;54614;47.576;7.524;2024-03-02T06:06:39;17.60;56.20
67817;DHT22;54614;47.576;7.524;2024-03-02T06:09:06;17.70;56.30
67817;DHT22;54614;47.576;7.524;2024-03-02T06:11:39;17.70;56.30
67817;DHT22;54614;47.576;7.524;2024-03-02T06:14:07;17.70;56.30
67817;DHT22;54614;47.576;7.524;2024-03-02T06:16:33;17.70;56.30
67817;DHT22;54614;47.576;7.524;2024-03-02T06:19:00;17.60;56.20
67817;DHT22;54614;47.576;7.524;2024-03-02T06:21:27;17.70;56.30
67817;DHT22;54614;47.576;7.524;2024-03-02T06:23:53;17.70;56.30
67817;DHT22;54614;47.576;7.524;2024-03-02T06:26:20;17.60;56.30
67817;DHT22;54614;47.576;7.524;2024-03-02T06:28:46;17.60;56.20
67817;DHT22;54614;47.576;7.524;2024-03-02T06:31:12;17.60;56.00
67817;DHT22;54614;47.576;7.524;2024-03-02T06:33:38;17.60;56.20
67817;DHT22;54614;47.576;7.524;2024-03-02T06:36:04;17.60;56.30
67817;DHT22;54614;47.576;7.524;2024-03-02T06:38:30;17.60;56.30
67817;DHT22;54614;47.576;7.524;2024-03-02T06:40:58;17.60;56.30
67817;DHT22;54614;47.576;7.524;2024-03-02T06:43:24;17.60;56.30
67817;DHT22;54614;47.576;7.524;2024-03-02T06:45:51;17.60;56.30
67817;DHT22;54614;47.576;7.524;2024-03-02T06:48:17;17.60;56.30
67817;DHT22;54614;47.576;7.524;2024-03-02T06:50:50;17.60;56.30
67817;DHT22;54614;47.576;7.524;2024-03-02T06:53:17;17.70;56.30
67817;DHT22;54614;47.576;7.524;2024-03-02T06:55:43;17.60;56.20
67817;DHT22;54614;47.576;7.524;2024-03-02T06:58:13;17.60;56.10
67817;DHT22;54614;47.576;7.524;2024-03-02T07:00:43;17.60;56.20
67817;DHT22;54614;47.576;7.524;2024-03-02T07:03:13;17.60;56.20
67817;DHT22;54614;47.576;7.524;2024-03-02T07:05:39;17.60;56.20
67817;DHT22;54614;47.576;7.524;2024-03-02T07:08:05;17.60;56.20
67817;DHT22;54614;47.576;7.524;2024-03-02T07:10:31;17.60;56.30
67817;DHT22;54614;47.576;7.524;2024-03-02T07:12:57;17.60;56.30
67817;DHT22;54614;47.576;7.524;2024-03-02T07:15:23;17.60;56.30
67817;DHT22;54614;47.576;7.524;2024-03-02T07:18:14;17.70;56.30
67817;DHT22;54614;47.576;7.524;2024-03-02T07:20:40;17.60;56.20
67817;DHT22;54614;47.576;7.524;2024-03-02T07:23:06;17.60;56.20
67817;DHT22;54614;47.576;7.524;2024-03-02T07:25:32;17.60;56.10
67817;DHT22;54614;47.576;7.524;2024-03-02T07:27:57;17.60;56.20
67817;DHT22;54614;47.576;7.524;2024-03-02T07:30:23;17.60;56.20
67817;DHT22;54614;47.576;7.524;2024-03-02T07:32:52;17.60;56.20
67817;DHT22;54614;47.576;7.524;2024-03-02T07:35:18;17.60;56.20
67817;DHT22;54614;47.576;7.524;2024-03-02T07:37:44;17.60;56.30
67817;DHT22;54614;47.576;7.524;2024-03-02T07:40:10;17.60;56.20
67817;DHT22;54614;47.576;7.524;2024-03-02T07:42:38;17.60;56.20
67817;DHT22;54614;47.576;7.524;2024-03-02T07:45:06;17.60;56.20
67817;DHT22;54614;47.576;7.524;2024-03-02T07:47:34;17.60;56.20
67817;DHT22;54614;47.576;7.524;2024-03-02T07:50:00;17.60;56.20
67817;DHT22;54614;47.576;7.524;2024-03-02T07:52:26;17.60;55.90
67817;DHT22;54614;47.576;7.524;2024-03-02T07:54:52;17.60;56.10
67817;DHT22;54614;47.576;7.524;2024-03-02T07:57:17;17.60;56.20
67817;DHT22;54614;47.576;7.524;2024-03-02T07:59:43;17.60;56.30
67817;DHT22;54614;47.576;7.524;2024-03-02T08:02:09;17.60;56.20
67817;DHT22;54614;47.576;7.524;2024-03-02T08:04:35;17.60;56.20
67817;DHT22;54614;47.576;7.524;2024-03-02T08:07:02;17.60;56.20
67817;DHT22;54614;47.576;7.524;2024-03-02T08:09:28;17.60;56.30
67817;DHT22;54614;47.576;7.524;2024-03-02T08:11:54;17.60;56.20
67817;DHT22;54614;47.576;7.524;2024-03-02T08:14:19;17.60;56.30
67817;DHT22;54614;47.576;7.524;2024-03-02T08:16:46;17.50;56.10
67817;DHT22;54614;47.576;7.524;2024-03-02T08:19:12;17.60;56.10
67817;DHT22;54614;47.576;7.524;2024-03-02T08:21:37;17.60;56.20
67817;DHT22;54614;47.576;7.524;2024-03-02T08:24:03;17.60;56.20
67817;DHT22;54614;47.576;7.524;2024-03-02T08:26:29;17.60;56.20
67817;DHT22;54614;47.576;7.524;2024-03-02T08:28:57;17.60;56.20
67817;DHT22;54614;47.576;7.524;2024-03-02T08:31:24;17.50;56.20
67817;DHT22;54614;47.576;7.524;2024-03-02T08:33:49;17.60;56.20
67817;DHT22;54614;47.576;7.524;2024-03-02T08:36:15;17.60;56.30
67817;DHT22;54614;47.576;7.524;2024-03-02T08:38:41;17.60;56.30
67817;DHT22;54614;47.576;7.524;2024-03-02T08:41:07;17.60;56.20
67817;DHT22;54614;47.576;7.524;2024-03-02T08:43:34;17.60;56.20
67817;DHT22;54614;47.576;7.524;2024-03-02T08:45:59;17.60;56.10
67817;DHT22;54614;47.576;7.524;2024-03-02T08:48:25;17.60;56.10
67817;DHT22;54614;47.576;7.524;2024-03-02T08:50:51;17.60;56.20
67817;DHT22;54614;47.576;7.524;2024-03-02T08:53:17;17.60;56.30
67817;DHT22;54614;47.576;7.524;2024-03-02T08:55:47;17.60;56.20
67817;DHT22;54614;47.576;7.524;2024-03-02T08:58:14;17.60;56.20
67817;DHT22;54614;47.576;7.524;2024-03-02T09:00:40;17.60;56.20
67817;DHT22;54614;47.576;7.524;2024-03-02T09:03:07;17.60;56.30
67817;DHT22;54614;47.576;7.524;2024-03-02T09:05:33;17.60;56.20
67817;DHT22;54614;47.576;7.524;2024-03-02T09:07:59;17.60;56.20
67817;DHT22;54614;47.576;7.524;2024-03-02T09:10:24;17.60;56.20
67817;DHT22;54614;47.576;7.524;2024-03-02T09:12:50;17.60;56.20
67817;DHT22;54614;47.576;7.524;2024-03-02T09:15:16;17.60;56.20
67817;DHT22;54614;47.576;7.524;2024-03-02T09:17:42;17.60;56.20
67817;DHT22;54614;47.576;7.524;2024-03-02T09:20:08;17.60;56.20
67817;DHT22;54614;47.576;7.524;2024-03-02T09:22:34;17.60;56.20
67817;DHT22;54614;47.576;7.524;2024-03-02T09:25:00;17.60;56.20
67817;DHT22;54614;47.576;7.524;2024-03-02T09:27:25;17.60;56.30
67817;DHT22;54614;47.576;7.524;2024-03-02T09:29:51;17.60;56.40
67817;DHT22;54614;47.576;7.524;2024-03-02T09:32:17;17.60;56.30
67817;DHT22;54614;47.576;7.524;2024-03-02T09:34:43;17.60;56.30
67817;DHT22;54614;47.576;7.524;2024-03-02T09:37:08;17.60;56.30
67817;DHT22;54614;47.576;7.524;2024-03-02T09:39:34;17.60;56.20
67817;DHT22;54614;47.576;7.524;2024-03-02T09:42:00;17.60;56.20
67817;DHT22;54614;47.576;7.524;2024-03-02T09:44:26;17.60;56.20
67817;DHT22;54614;47.576;7.524;2024-03-02T09:46:52;17.60;56.20
67817;DHT22;54614;47.576;7.524;2024-03-02T09:49:18;17.60;56.20
67817;DHT22;54614;47.576;7.524;2024-03-02T09:51:48;17.60;56.20
67817;DHT22;54614;47.576;7.524;2024-03-02T09:54:15;17.60;56.20
67817;DHT22;54614;47.576;7.524;2024-03-02T09:56:42;17.60;56.20
67817;DHT22;54614;47.576;7.524;2024-03-02T09:59:07;17.60;56.20
67817;DHT22;54614;47.576;7.524;2024-03-02T10:01:33;17.60;56.10
67817;DHT22;54614;47.576;7.524;2024-03-02T10:04:00;17.60;56.10
67817;DHT22;54614;47.576;7.524;2024-03-02T10:06:27;17.60;56.20
67817;DHT22;54614;47.576;7.524;2024-03-02T10:08:55;17.60;56.20
67817;DHT22;54614;47.576;7.524;2024-03-02T10:11:31;17.70;56.20
67817;DHT22;54614;47.576;7.524;2024-03-02T10:14:05;17.70;56.20
67817;DHT22;54614;47.576;7.524;2024-03-02T10:16:37;17.70;56.10
67817;DHT22;54614;47.576;7.524;2024-03-02T10:19:23;17.70;56.10
67817;DHT22;54614;47.576;7.524;2024-03-02T10:21:51;17.70;56.10
67817;DHT22;54614;47.576;7.524;2024-03-02T10:24:20;17.70;56.10
67817;DHT22;54614;47.576;7.524;2024-03-02T10:26:47;17.80;56.00
67817;DHT22;54614;47.576;7.524;2024-03-02T10:29:13;17.80;55.90
67817;DHT22;54614;47.576;7.524;2024-03-02T10:31:40;17.90;55.90
67817;DHT22;54614;47.576;7.524;2024-03-02T10:34:08;17.90;55.80
67817;DHT22;54614;47.576;7.524;2024-03-02T10:36:36;18.00;55.80
67817;DHT22;54614;47.576;7.524;2024-03-02T10:39:07;18.10;55.70
67817;DHT22;54614;47.576;7.524;2024-03-02T10:41:34;18.10;55.80
67817;DHT22;54614;47.576;7.524;2024-03-02T10:44:05;18.10;55.70
67817;DHT22;54614;47.576;7.524;2024-03-02T10:46:35;18.10;55.80
67817;DHT22;54614;47.576;7.524;2024-03-02T10:49:03;18.10;55.80
67817;DHT22;54614;47.576;7.524;2024-03-02T10:51:33;18.10;55.90
67817;DHT22;54614;47.576;7.524;2024-03-02T10:54:02;18.10;56.00
67817;DHT22;54614;47.576;7.524;2024-03-02T10:56:31;18.10;56.00
67817;DHT22;54614;47.576;7.524;2024-03-02T11:01:43;18.20;56.00
67817;DHT22;54614;47.576;7.524;2024-03-02T11:04:13;18.20;56.00
67817;DHT22;54614;47.576;7.524;2024-03-02T11:06:50;18.20;55.90
67817;DHT22;54614;47.576;7.524;2024-03-02T11:09:22;18.30;55.80
67817;DHT22;54614;47.576;7.524;2024-03-02T11:12:13;18.40;55.50
67817;DHT22;54614;47.576;7.524;2024-03-02T11:14:51;18.50;55.30
67817;DHT22;54614;47.576;7.524;2024-03-02T11:17:19;18.60;55.30
67817;DHT22;54614;47.576;7.524;2024-03-02T11:19:47;18.50;55.40
67817;DHT22;54614;47.576;7.524;2024-03-02T11:22:13;18.40;55.60
67817;DHT22;54614;47.576;7.524;2024-03-02T11:24:51;18.40;55.80
67817;DHT22;54614;47.576;7.524;2024-03-02T11:33:02;18.20;56.10
67817;DHT22;54614;47.576;7.524;2024-03-02T11:35:40;18.20;56.20
67817;DHT22;54614;47.576;7.524;2024-03-02T11:38:13;18.20;56.30
67817;DHT22;54614;47.576;7.524;2024-03-02T11:40:40;18.20;56.30
67817;DHT22;54614;47.576;7.524;2024-03-02T11:43:07;18.20;56.40
67817;DHT22;54614;47.576;7.524;2024-03-02T11:45:36;18.20;56.30
67817;DHT22;54614;47.576;7.524;2024-03-02T11:48:08;18.10;56.30
67817;DHT22;54614;47.576;7.524;2024-03-02T11:50:47;18.10;56.30
67817;DHT22;54614;47.576;7.524;2024-03-02T11:53:15;18.10;56.30
67817;DHT22;54614;47.576;7.524;2024-03-02T11:55:42;18.20;56.30
67817;DHT22;54614;47.576;7.524;2024-03-02T11:58:15;18.20;56.40
67817;DHT22;54614;47.576;7.524;2024-03-02T12:00:43;18.10;56.90
67817;DHT22;54614;47.576;7.524;2024-03-02T12:03:12;18.10;56.30
67817;DHT22;54614;47.576;7.524;2024-03-02T12:05:39;18.10;56.30
67817;DHT22;54614;47.576;7.524;2024-03-02T12:08:07;18.10;56.40
67817;DHT22;54614;47.576;7.524;2024-03-02T12:10:34;18.10;56.40
67817;DHT22;54614;47.576;7.524;2024-03-02T12:13:06;18.20;56.50
67817;DHT22;54614;47.576;7.524;2024-03-02T12:15:34;18.10;56.40
67817;DHT22;54614;47.576;7.524;2024-03-02T12:18:04;18.10;56.50
67817;DHT22;54614;47.576;7.524;2024-03-02T12:20:32;18.10;56.40
67817;DHT22;54614;47.576;7.524;2024-03-02T12:23:01;18.10;56.40
67817;DHT22;54614;47.576;7.524;2024-03-02T12:25:31;18.10;56.30
67817;DHT22;54614;47.576;7.524;2024-03-02T12:28:00;18.10;56.40
67817;DHT22;54614;47.576;7.524;2024-03-02T12:30:30;18.10;56.40
67817;DHT22;54614;47.576;7.524;2024-03-02T12:33:00;18.10;56.50
67817;DHT22;54614;47.576;7.524;2024-03-02T12:35:26;18.10;56.50
67817;DHT22;54614;47.576;7.524;2024-03-02T12:37:53;18.10;56.50
67817;DHT22;54614;47.576;7.524;2024-03-02T12:40:20;18.10;56.50
67817;DHT22;54614;47.576;7.524;2024-03-02T12:42:49;18.10;56.50
67817;DHT22;54614;47.576;7.524;2024-03-02T12:45:16;18.10;56.50
67817;DHT22;54614;47.576;7.524;2024-03-02T12:47:49;18.20;56.40
67817;DHT22;54614;47.576;7.524;2024-03-02T12:50:17;18.20;56.40
67817;DHT22;54614;47.576;7.524;2024-03-02T12:52:43;18.20;56.40
67817;DHT22;54614;47.576;7.524;2024-03-02T12:55:09;18.20;56.40
67817;DHT22;54614;47.576;7.524;2024-03-02T12:57:35;18.20;56.40
67817;DHT22;54614;47.576;7.524;2024-03-02T13:00:03;18.20;56.50
67817;DHT22;54614;47.576;7.524;2024-03-02T13:02:40;18.20;56.50
67817;DHT22;54614;47.576;7.524;2024-03-02T13:05:08;18.20;56.50
67817;DHT22;54614;47.576;7.524;2024-03-02T13:07:38;18.20;56.50
67817;DHT22;54614;47.576;7.524;2024-03-02T13:10:05;18.20;56.50
67817;DHT22;54614;47.576;7.524;2024-03-02T13:12:34;18.20;56.50
67817;DHT22;54614;47.576;7.524;2024-03-02T13:15:02;18.20;56.50
67817;DHT22;54614;47.576;7.524;2024-03-02T13:17:29;18.10;56.40
67817;DHT22;54614;47.576;7.524;2024-03-02T13:19:56;18.20;56.50
67817;DHT22;54614;47.576;7.524;2024-03-02T13:22:23;18.20;56.50
67817;DHT22;54614;47.576;7.524;2024-03-02T13:24:50;18.10;56.50
67817;DHT22;54614;47.576;7.524;2024-03-02T13:27:17;18.20;56.50
67817;DHT22;54614;47.576;7.524;2024-03-02T13:29:47;18.20;56.50
67817;DHT22;54614;47.576;7.524;2024-03-02T13:32:14;18.10;57.10
67817;DHT22;54614;47.576;7.524;2024-03-02T13:34:41;18.20;56.50
67817;DHT22;54614;47.576;7.524;2024-03-02T13:37:07;18.20;56.50
67817;DHT22;54614;47.576;7.524;2024-03-02T13:39:33;18.20;56.70
67817;DHT22;54614;47.576;7.524;2024-03-02T13:42:08;18.20;56.50
67817;DHT22;54614;47.576;7.524;2024-03-02T13:44:35;18.20;56.50
67817;DHT22;54614;47.576;7.524;2024-03-02T13:47:02;18.10;56.40
67817;DHT22;54614;47.576;7.524;2024-03-02T13:49:28;18.20;56.50
67817;DHT22;54614;47.576;7.524;2024-03-02T13:51:59;18.20;56.50
67817;DHT22;54614;47.576;7.524;2024-03-02T13:54:28;18.20;56.60
67817;DHT22;54614;47.576;7.524;2024-03-02T13:56:56;18.20;56.60
67817;DHT22;54614;47.576;7.524;2024-03-02T13:59:24;18.20;56.60
67817;DHT22;54614;47.576;7.524;2024-03-02T14:01:50;18.20;56.60
67817;DHT22;54614;47.576;7.524;2024-03-02T14:04:16;18.20;56.50
67817;DHT22;54614;47.576;7.524;2024-03-02T14:06:43;18.20;56.50
67817;DHT22;54614;47.576;7.524;2024-03-02T14:09:09;18.20;56.50
67817;DHT22;54614;47.576;7.524;2024-03-02T14:11:35;18.20;56.40
67817;DHT22;54614;47.576;7.524;2024-03-02T14:14:01;18.20;56.50
67817;DHT22;54614;47.576;7.524;2024-03-02T14:16:27;18.20;56.50
67817;DHT22;54614;47.576;7.524;2024-03-02T14:18:53;18.20;56.40
67817;DHT22;54614;47.576;7.524;2024-03-02T14:21:19;18.20;56.50
67817;DHT22;54614;47.576;7.524;2024-03-02T14:23:45;18.20;56.50
67817;DHT22;54614;47.576;7.524;2024-03-02T14:26:11;18.20;56.40
67817;DHT22;54614;47.576;7.524;2024-03-02T14:28:37;18.20;56.40
67817;DHT22;54614;47.576;7.524;2024-03-02T14:31:02;18.20;56.50
67817;DHT22;54614;47.576;7.524;2024-03-02T14:33:28;18.20;56.50
67817;DHT22;54614;47.576;7.524;2024-03-02T14:35:54;18.20;56.40
67817;DHT22;54614;47.576;7.524;2024-03-02T14:38:20;18.20;56.40
67817;DHT22;54614;47.576;7.524;2024-03-02T14:40:46;18.20;56.40
67817;DHT22;54614;47.576;7.524;2024-03-02T14:43:11;18.20;56.40
67817;DHT22;54614;47.576;7.524;2024-03-02T14:45:37;18.20;56.40
67817;DHT22;54614;47.576;7.524;2024-03-02T14:48:04;18.20;56.40
67817;DHT22;54614;47.576;7.524;2024-03-02T14:50:30;18.20;56.40
67817;DHT22;54614;47.576;7.524;2024-03-02T14:52:56;18.20;56.50
67817;DHT22;54614;47.576;7.524;2024-03-02T14:55:25;18.20;56.40
67817;DHT22;54614;47.576;7.524;2024-03-02T14:57:51;18.20;56.40
67817;DHT22;54614;47.576;7.524;2024-03-02T15:00:17;18.20;56.40
67817;DHT22;54614;47.576;7.524;2024-03-02T15:02:43;18.20;56.30
67817;DHT22;54614;47.576;7.524;2024-03-02T15:05:09;18.20;56.20
67817;DHT22;54614;47.576;7.524;2024-03-02T15:07:35;18.20;56.30
67817;DHT22;54614;47.576;7.524;2024-03-02T15:10:01;18.20;56.40
67817;DHT22;54614;47.576;7.524;2024-03-02T15:12:26;18.20;56.30
67817;DHT22;54614;47.576;7.524;2024-03-02T15:14:52;18.20;56.40
67817;DHT22;54614;47.576;7.524;2024-03-02T15:17:18;18.20;56.40
67817;DHT22;54614;47.576;7.524;2024-03-02T15:19:45;18.20;56.40
67817;DHT22;54614;47.576;7.524;2024-03-02T15:22:11;18.20;56.40
67817;DHT22;54614;47.576;7.524;2024-03-02T15:24:38;18.20;56.40
67817;DHT22;54614;47.576;7.524;2024-03-02T15:27:04;18.20;56.40
67817;DHT22;54614;47.576;7.524;2024-03-02T15:29:32;18.20;56.30
67817;DHT22;54614;47.576;7.524;2024-03-02T15:31:58;18.20;56.20
67817;DHT22;54614;47.576;7.524;2024-03-02T15:34:24;18.20;56.30
67817;DHT22;54614;47.576;7.524;2024-03-02T15:36:50;18.20;56.40
67817;DHT22;54614;47.576;7.524;2024-03-02T15:39:16;18.20;56.40
67817;DHT22;54614;47.576;7.524;2024-03-02T15:41:46;18.20;56.40